Rhapsody Of The Seas — C6UA2 — position and weather

sailwx.info

Track history (hours):
 
Tides and Currents Weather Stations Pressure Air Temp Water Temp Dewpoint Dewpoint Depression Visibility Wind Speed Wind Dir Waves Ship Positions

Rhapsody Of The Seas

Last reported at 2016-Jul-30 14:33 UTC. Time now 2016-Jul-30 15:02 UTC.
Position N 40°34' E 022°53'.

Type: Passenger vessel. MMSI: 311805000.

Date/timePositionNaut miles runAvg speedWind from/ knotsBaromVisibWave heightAir tempDewpointWater temp
2016-Jul-30 14:33N 40°34' E 022°53'5 4.7
2016-Jul-30 13:33N 40°38' E 022°56'0 0.0
2016-Jul-30 12:33N 40°38' E 022°56'0 0.0
2016-Jul-30 11:33N 40°38' E 022°56'0 0.0
2016-Jul-30 10:33N 40°38' E 022°56'0 0.0
2016-Jul-30 09:24N 40°38' E 022°56'0 0.0
2016-Jul-30 08:24N 40°38' E 022°56'0 0.0
2016-Jul-30 07:27N 40°38' E 022°56'0 0.0
2016-Jul-30 06:27N 40°38' E 022°56'0 0.0
2016-Jul-30 05:27N 40°38' E 022°56'8 9.4
2016-Jul-30 04:33N 40°31' E 022°49'1716.8
2016-Jul-30 03:33N 40°15' E 022°52'7617.8
2016-Jul-29 23:18N 39°19' E 023°59'8817.5
2016-Jul-29 18:17N 37°57' E 024°36'1317.9
2016-Jul-29 17:33N 37°48' E 024°24'3316.3
2016-Jul-29 15:33N 37°39' E 023°44'1616.7
2016-Jul-29 14:33N 37°54' E 023°36'3 2.9
2016-Jul-29 13:31N 37°56' E 023°38'0 0.0
2016-Jul-29 12:28N 37°56' E 023°38'0 0.0
2016-Jul-29 11:31N 37°56' E 023°38'0 0.0
2016-Jul-29 10:31N 37°56' E 023°38'0 0.0
2016-Jul-29 09:31N 37°56' E 023°38'0 0.0
2016-Jul-29 08:31N 37°56' E 023°38'0 0.0
2016-Jul-29 07:31N 37°56' E 023°38'0 0.0
2016-Jul-29 06:31N 37°56' E 023°38'0 0.0
2016-Jul-29 05:31N 37°56' E 023°38'0 0.0
2016-Jul-29 04:31N 37°56' E 023°38'0 0.0
2016-Jul-29 03:28N 37°56' E 023°38'0 0.0
2016-Jul-29 02:31N 37°56' E 023°38'1 1.5
2016-Jul-29 01:33N 37°56' E 023°37'1312.8
2016-Jul-29 00:33N 37°44' E 023°43'1414.1
2016-Jul-28 23:34N 37°31' E 023°48'1414.3
2016-Jul-28 22:34N 37°17' E 023°53'1914.3
2016-Jul-28 21:13N 36°58' E 023°58'  
2016-Jul-26 05:00N 42°42' E 015°30'14318.4 320 / 131014.0 5.4 1.023.522.127.0
2016-Jul-25 21:13N 44°37' E 013°33'3116.4
2016-Jul-25 19:20N 45°02' E 013°07'1114.7
2016-Jul-25 18:33N 45°09' E 012°55'1514.9
2016-Jul-25 17:33N 45°19' E 012°39'1313.0
2016-Jul-25 16:34N 45°26' E 012°24'3 3.4
2016-Jul-25 15:32N 45°26' E 012°19'0 0.0
2016-Jul-25 14:32N 45°26' E 012°19'0 0.0
2016-Jul-25 13:29N 45°26' E 012°19'0 0.0
2016-Jul-25 12:32N 45°26' E 012°19'0 0.0
2016-Jul-25 11:32N 45°26' E 012°19'0 0.0
2016-Jul-25 10:29N 45°26' E 012°19'0 0.0
2016-Jul-25 09:32N 45°26' E 012°19'0 0.0
2016-Jul-25 08:26N 45°26' E 012°19'0 0.0
2016-Jul-25 07:32N 45°26' E 012°19'0 0.0
2016-Jul-25 06:32N 45°26' E 012°19'0 0.0
2016-Jul-25 05:29N 45°26' E 012°19'0 0.4
2016-Jul-25 04:34N 45°26' E 012°18'6 6.4
2016-Jul-25 03:33N 45°25' E 012°27'1212.5
2016-Jul-25 02:33N 45°17' E 012°42'1313.0
2016-Jul-25 01:33N 45°09' E 012°56'1313.2
2016-Jul-25 00:33N 45°01' E 013°11'1313.0
2016-Jul-24 23:33N 44°52' E 013°24'2813.1
2016-Jul-24 21:25N 44°30' E 013°49'67 4.8
2016-Jul-24 07:34N 44°05' E 015°15'29 6.5
2016-Jul-24 03:07N 43°51' E 014°40'1119.3
2016-Jul-24 02:33N 43°42' E 014°48'2119.2
2016-Jul-24 01:28N 43°25' E 015°03'1819.7
2016-Jul-24 00:33N 43°10' E 015°18'12219.3
2016-Jul-23 18:13N 42°27' E 017°54'2020.1
2016-Jul-23 17:15N 42°22' E 018°19'1011.3
2016-Jul-23 16:21N 42°26' E 018°33'6 7.2
2016-Jul-23 15:34N 42°27' E 018°40'4 4.4
2016-Jul-23 14:33N 42°26' E 018°46'0 0.1
2016-Jul-23 13:30N 42°26' E 018°46'0 0.0
2016-Jul-23 12:33N 42°26' E 018°46'1 0.6
2016-Jul-23 11:33N 42°26' E 018°46'1 1.1
2016-Jul-23 10:33N 42°27' E 018°45'0 0.0
2016-Jul-23 09:33N 42°27' E 018°46'0 0.0
2016-Jul-23 08:33N 42°27' E 018°45'0 0.0
2016-Jul-23 07:33N 42°27' E 018°45'0 0.0
2016-Jul-23 06:30N 42°27' E 018°46'1 0.7
2016-Jul-23 04:34N 42°28' E 018°44'7 6.9
2016-Jul-23 03:33N 42°26' E 018°35'9 9.4
2016-Jul-23 02:33N 42°17' E 018°35'1615.8
2016-Jul-23 01:31N 42°00' E 018°37'1616.1
2016-Jul-23 00:32N 41°45' E 018°39'39612.0
2016-Jul-21 15:34N 37°16' E 024°57'1515.4
2016-Jul-21 14:34N 37°28' E 025°10'7 7.1
2016-Jul-21 13:32N 37°28' E 025°19'0 0.0
2016-Jul-21 12:32N 37°28' E 025°19'0 0.0
2016-Jul-21 11:32N 37°28' E 025°19'0 0.0
2016-Jul-21 10:32N 37°28' E 025°19'0 0.0
2016-Jul-21 09:32N 37°28' E 025°19'0 0.0
2016-Jul-21 08:32N 37°28' E 025°19'0 0.0
2016-Jul-21 07:29N 37°28' E 025°19'0 0.0
2016-Jul-21 06:32N 37°28' E 025°19'0 0.0
2016-Jul-21 05:32N 37°28' E 025°19'0 0.0
2016-Jul-21 04:29N 37°28' E 025°19'1 0.9
2016-Jul-21 03:30N 37°28' E 025°18'8 8.3
2016-Jul-21 02:34N 37°30' E 025°09'17 7.6
2016-Jul-21 00:17N 37°33' E 024°47'46 7.8
2016-Jul-20 18:24N 37°36' E 023°49'7 7.9
2016-Jul-20 17:34N 37°40' E 023°42'8 8.2
2016-Jul-20 16:33N 37°47' E 023°38'8 7.8
2016-Jul-20 15:34N 37°55' E 023°37'  
Track history (hours):
 
Tides and Currents Weather Stations Pressure Air Temp Water Temp Dewpoint Dewpoint Depression Visibility Wind Speed Wind Dir Waves Ship Positions

Rhapsody Of The Seas

Last reported at 2016-Jul-30 14:33 UTC. Time now 2016-Jul-30 15:02 UTC.
Position N 40°34' E 022°53'.

Type: Passenger vessel. MMSI: 311805000.

Date/timePositionNaut miles runAvg speedWind from/ knotsBaromVisibWave heightAir tempDewpointWater temp
2016-Jul-30 14:33N 40°34' E 022°53'5 4.7
2016-Jul-30 13:33N 40°38' E 022°56'0 0.0
2016-Jul-30 12:33N 40°38' E 022°56'0 0.0
2016-Jul-30 11:33N 40°38' E 022°56'0 0.0
2016-Jul-30 10:33N 40°38' E 022°56'0 0.0
2016-Jul-30 09:24N 40°38' E 022°56'0 0.0
2016-Jul-30 08:24N 40°38' E 022°56'0 0.0
2016-Jul-30 07:27N 40°38' E 022°56'0 0.0
2016-Jul-30 06:27N 40°38' E 022°56'0 0.0
2016-Jul-30 05:27N 40°38' E 022°56'8 9.4
2016-Jul-30 04:33N 40°31' E 022°49'1716.8
2016-Jul-30 03:33N 40°15' E 022°52'7617.8
2016-Jul-29 23:18N 39°19' E 023°59'8817.5
2016-Jul-29 18:17N 37°57' E 024°36'1317.9
2016-Jul-29 17:33N 37°48' E 024°24'3316.3
2016-Jul-29 15:33N 37°39' E 023°44'1616.7
2016-Jul-29 14:33N 37°54' E 023°36'3 2.9
2016-Jul-29 13:31N 37°56' E 023°38'0 0.0
2016-Jul-29 12:28N 37°56' E 023°38'0 0.0
2016-Jul-29 11:31N 37°56' E 023°38'0 0.0
2016-Jul-29 10:31N 37°56' E 023°38'0 0.0
2016-Jul-29 09:31N 37°56' E 023°38'0 0.0
2016-Jul-29 08:31N 37°56' E 023°38'0 0.0
2016-Jul-29 07:31N 37°56' E 023°38'0 0.0
2016-Jul-29 06:31N 37°56' E 023°38'0 0.0
2016-Jul-29 05:31N 37°56' E 023°38'0 0.0
2016-Jul-29 04:31N 37°56' E 023°38'0 0.0
2016-Jul-29 03:28N 37°56' E 023°38'0 0.0
2016-Jul-29 02:31N 37°56' E 023°38'1 1.5
2016-Jul-29 01:33N 37°56' E 023°37'1312.8
2016-Jul-29 00:33N 37°44' E 023°43'1414.1
2016-Jul-28 23:34N 37°31' E 023°48'1414.3
2016-Jul-28 22:34N 37°17' E 023°53'1914.3
2016-Jul-28 21:13N 36°58' E 023°58'  
2016-Jul-26 05:00N 42°42' E 015°30'14318.4 320 / 131014.0 5.4 1.023.522.127.0
2016-Jul-25 21:13N 44°37' E 013°33'3116.4
2016-Jul-25 19:20N 45°02' E 013°07'1114.7
2016-Jul-25 18:33N 45°09' E 012°55'1514.9
2016-Jul-25 17:33N 45°19' E 012°39'1313.0
2016-Jul-25 16:34N 45°26' E 012°24'3 3.4
2016-Jul-25 15:32N 45°26' E 012°19'0 0.0
2016-Jul-25 14:32N 45°26' E 012°19'0 0.0
2016-Jul-25 13:29N 45°26' E 012°19'0 0.0
2016-Jul-25 12:32N 45°26' E 012°19'0 0.0
2016-Jul-25 11:32N 45°26' E 012°19'0 0.0
2016-Jul-25 10:29N 45°26' E 012°19'0 0.0
2016-Jul-25 09:32N 45°26' E 012°19'0 0.0
2016-Jul-25 08:26N 45°26' E 012°19'0 0.0
2016-Jul-25 07:32N 45°26' E 012°19'0 0.0
2016-Jul-25 06:32N 45°26' E 012°19'0 0.0
2016-Jul-25 05:29N 45°26' E 012°19'0 0.4
2016-Jul-25 04:34N 45°26' E 012°18'6 6.4
2016-Jul-25 03:33N 45°25' E 012°27'1212.5
2016-Jul-25 02:33N 45°17' E 012°42'1313.0
2016-Jul-25 01:33N 45°09' E 012°56'1313.2
2016-Jul-25 00:33N 45°01' E 013°11'1313.0
2016-Jul-24 23:33N 44°52' E 013°24'2813.1
2016-Jul-24 21:25N 44°30' E 013°49'67 4.8
2016-Jul-24 07:34N 44°05' E 015°15'29 6.5
2016-Jul-24 03:07N 43°51' E 014°40'1119.3
2016-Jul-24 02:33N 43°42' E 014°48'2119.2
2016-Jul-24 01:28N 43°25' E 015°03'1819.7
2016-Jul-24 00:33N 43°10' E 015°18'12219.3
2016-Jul-23 18:13N 42°27' E 017°54'2020.1
2016-Jul-23 17:15N 42°22' E 018°19'1011.3
2016-Jul-23 16:21N 42°26' E 018°33'6 7.2
2016-Jul-23 15:34N 42°27' E 018°40'4 4.4
2016-Jul-23 14:33N 42°26' E 018°46'0 0.1
2016-Jul-23 13:30N 42°26' E 018°46'0 0.0
2016-Jul-23 12:33N 42°26' E 018°46'1 0.6
2016-Jul-23 11:33N 42°26' E 018°46'1 1.1
2016-Jul-23 10:33N 42°27' E 018°45'0 0.0
2016-Jul-23 09:33N 42°27' E 018°46'0 0.0
2016-Jul-23 08:33N 42°27' E 018°45'0 0.0
2016-Jul-23 07:33N 42°27' E 018°45'0 0.0
2016-Jul-23 06:30N 42°27' E 018°46'1 0.7
2016-Jul-23 04:34N 42°28' E 018°44'7 6.9
2016-Jul-23 03:33N 42°26' E 018°35'9 9.4
2016-Jul-23 02:33N 42°17' E 018°35'1615.8
2016-Jul-23 01:31N 42°00' E 018°37'1616.1
2016-Jul-23 00:32N 41°45' E 018°39'39612.0
2016-Jul-21 15:34N 37°16' E 024°57'1515.4
2016-Jul-21 14:34N 37°28' E 025°10'7 7.1
2016-Jul-21 13:32N 37°28' E 025°19'0 0.0
2016-Jul-21 12:32N 37°28' E 025°19'0 0.0
2016-Jul-21 11:32N 37°28' E 025°19'0 0.0
2016-Jul-21 10:32N 37°28' E 025°19'0 0.0
2016-Jul-21 09:32N 37°28' E 025°19'0 0.0
2016-Jul-21 08:32N 37°28' E 025°19'0 0.0
2016-Jul-21 07:29N 37°28' E 025°19'0 0.0
2016-Jul-21 06:32N 37°28' E 025°19'0 0.0
2016-Jul-21 05:32N 37°28' E 025°19'0 0.0
2016-Jul-21 04:29N 37°28' E 025°19'1 0.9
2016-Jul-21 03:30N 37°28' E 025°18'8 8.3
2016-Jul-21 02:34N 37°30' E 025°09'17 7.6
2016-Jul-21 00:17N 37°33' E 024°47'46 7.8
2016-Jul-20 18:24N 37°36' E 023°49'7 7.9
2016-Jul-20 17:34N 37°40' E 023°42'8 8.2
2016-Jul-20 16:33N 37°47' E 023°38'8 7.8
2016-Jul-20 15:34N 37°55' E 023°37'  

Dump ship's entire track history